Time;durP1;ratioP1;P1;durP2;ratioP2;P2;SDS_P1;SDS_P2;PMS_P1;PMS_P2;Temp;Humidity;BMP_temperature;BMP_pressure;BME280_temperature;BME280_humidity;BME280_pressure;Samples;Min_cycle;Max_cycle;Signal;HPM_P1;HPM_P2
2023/05/07 00:02:13;;;;;;;5.47;4.00;;;;;;;13.42;nan;99347.09;6134127;23;20175;-82
2023/05/07 00:04:39;;;;;;;4.47;4.17;;;;;;;13.15;nan;99341.53;6133760;23;20170;-82
2023/05/07 00:07:06;;;;;;;4.47;4.07;;;;;;;13.06;nan;99345.66;6109801;23;20173;-82
2023/05/07 00:09:36;;;;;;;4.10;3.80;;;;;;;13.02;nan;99348.00;6110223;23;20180;-82
2023/05/07 00:12:04;;;;;;;5.70;5.20;;;;;;;13.04;nan;99353.13;6158381;23;20171;-82
2023/05/07 00:14:31;;;;;;;5.47;5.07;;;;;;;12.95;nan;99350.03;6109787;23;20170;-83
2023/05/07 00:16:57;;;;;;;5.63;4.27;;;;;;;12.82;nan;99350.31;6159113;23;20168;-82
2023/05/07 00:19:24;;;;;;;4.57;4.23;;;;;;;12.75;nan;99355.03;6158468;23;20235;-82
2023/05/07 00:21:53;;;;;;;4.60;4.20;;;;;;;12.80;nan;99357.81;6134347;23;20183;-82
2023/05/07 00:24:21;;;;;;;4.67;3.97;;;;;;;12.74;nan;99350.69;6133781;23;20212;-82
2023/05/07 00:26:50;;;;;;;4.40;4.00;;;;;;;12.58;nan;99351.47;6134057;23;20158;-83
2023/05/07 00:29:16;;;;;;;4.50;4.10;;;;;;;12.54;nan;99356.50;6133922;23;20171;-81
2023/05/07 00:31:43;;;;;;;4.30;4.00;;;;;;;12.44;nan;99350.13;6133854;23;20182;-82
2023/05/07 00:34:10;;;;;;;4.50;4.10;;;;;;;12.39;nan;99344.63;6109306;23;20180;-84
2023/05/07 00:36:37;;;;;;;4.43;4.00;;;;;;;12.35;nan;99345.13;6109535;23;20697;-82
2023/05/07 00:39:04;;;;;;;4.20;3.90;;;;;;;12.34;nan;99345.34;6109400;23;20173;-82
2023/05/07 00:41:31;;;;;;;4.53;4.13;;;;;;;12.34;nan;99346.16;6158680;23;20190;-82
2023/05/07 00:43:58;;;;;;;4.03;3.73;;;;;;;12.31;nan;99353.91;6109566;23;20179;-81
2023/05/07 00:46:25;;;;;;;4.53;4.13;;;;;;;12.25;nan;99344.09;6109460;23;20177;-82
2023/05/07 00:48:53;;;;;;;4.57;4.27;;;;;;;12.24;nan;99355.88;6109397;23;20262;-82
2023/05/07 00:51:22;;;;;;;4.43;4.10;;;;;;;12.12;nan;99347.03;6133687;23;20195;-82
2023/05/07 00:53:49;;;;;;;4.60;4.23;;;;;;;12.14;nan;99356.47;6133521;23;20258;-82
2023/05/07 00:56:16;;;;;;;5.23;3.90;;;;;;;12.14;nan;99347.59;6158307;23;20168;-82
2023/05/07 00:58:43;;;;;;;4.87;4.47;;;;;;;12.05;nan;99339.09;6133569;23;20541;-82
2023/05/07 01:01:10;;;;;;;4.10;3.77;;;;;;;12.05;nan;99341.78;6109785;23;20251;-82
2023/05/07 01:03:37;;;;;;;4.03;3.73;;;;;;;12.01;nan;99335.25;6158093;23;20211;-82
2023/05/07 01:06:05;;;;;;;4.20;3.90;;;;;;;12.02;nan;99336.06;6133919;23;20163;-81
2023/05/07 01:08:32;;;;;;;4.37;3.97;;;;;;;11.96;nan;99328.94;6109816;23;20182;-82
2023/05/07 01:10:59;;;;;;;4.30;3.90;;;;;;;11.93;nan;99327.56;6134242;23;20193;-83
2023/05/07 01:13:27;;;;;;;4.73;4.30;;;;;;;11.96;nan;99335.13;6134087;23;20168;-83
2023/05/07 01:15:54;;;;;;;5.13;4.20;;;;;;;11.92;nan;99333.97;6133642;23;20177;-82
2023/05/07 01:18:21;;;;;;;4.40;4.10;;;;;;;11.88;nan;99343.56;6109591;23;20176;-82
2023/05/07 01:20:48;;;;;;;4.90;4.53;;;;;;;11.82;nan;99337.25;6109751;23;20175;-82
2023/05/07 01:23:15;;;;;;;4.43;4.10;;;;;;;11.86;nan;99348.34;6109640;23;20180;-83
2023/05/07 01:25:42;;;;;;;4.40;4.10;;;;;;;11.82;nan;99339.13;6155069;23;20200;-82
2023/05/07 01:28:10;;;;;;;4.70;4.30;;;;;;;11.83;nan;99348.81;6134531;23;20246;-85
2023/05/07 01:30:42;;;;;;;4.73;4.43;;;;;;;11.74;nan;99350.22;6182548;23;20208;-83
2023/05/07 01:33:15;;;;;;;4.60;4.30;;;;;;;11.67;nan;99352.16;6160130;23;20172;-83
2023/05/07 01:35:45;;;;;;;4.70;4.30;;;;;;;11.62;nan;99350.16;6135642;23;20233;-84
2023/05/07 01:38:12;;;;;;;4.70;4.30;;;;;;;11.64;nan;99358.00;6160559;23;20169;-82
2023/05/07 01:40:39;;;;;;;4.67;4.23;;;;;;;11.61;nan;99353.94;6160136;23;20176;-83
2023/05/07 01:43:06;;;;;;;4.93;4.53;;;;;;;11.63;nan;99351.00;6160011;23;20201;-82
2023/05/07 01:45:35;;;;;;;5.33;4.20;;;;;;;11.57;nan;99351.94;6136104;23;20171;-82
2023/05/07 01:48:03;;;;;;;4.67;4.37;;;;;;;11.45;nan;99349.25;6135752;23;20168;-82
2023/05/07 01:50:31;;;;;;;5.13;4.73;;;;;;;11.49;nan;99347.72;6185852;23;20258;-83
2023/05/07 01:52:58;;;;;;;4.77;4.37;;;;;;;11.47;nan;99347.97;6160104;23;20172;-83
2023/05/07 01:55:24;;;;;;;4.80;4.40;;;;;;;11.45;nan;99347.38;6135606;23;20164;-82
2023/05/07 01:57:51;;;;;;;4.90;4.50;;;;;;;11.39;nan;99342.09;6160055;23;20193;-82
2023/05/07 02:00:18;;;;;;;5.20;4.70;;;;;;;11.38;nan;99343.19;6160256;23;20175;-82
2023/05/07 02:02:45;;;;;;;4.50;4.20;;;;;;;11.36;nan;99342.59;6184645;23;20267;-83
2023/05/07 02:05:38;;;;;;;4.33;4.03;;;;;;;11.29;nan;99333.84;6179629;23;20249;-82
2023/05/07 02:08:21;;;;;;;4.90;4.50;;;;;;;11.28;nan;99341.06;6163409;23;20172;-83
2023/05/07 02:10:49;;;;;;;4.80;4.40;;;;;;;11.23;nan;99345.47;6159779;23;20191;-83
2023/05/07 02:13:16;;;;;;;4.83;4.50;;;;;;;11.16;nan;99344.75;6160165;23;20172;-84
2023/05/07 02:15:46;;;;;;;4.87;4.47;;;;;;;11.11;nan;99341.94;6135499;23;20175;-82
2023/05/07 02:18:13;;;;;;;4.70;4.30;;;;;;;11.13;nan;99348.72;6136271;23;20166;-83
2023/05/07 02:20:40;;;;;;;5.10;4.63;;;;;;;11.10;nan;99351.88;6159575;23;20179;-83
2023/05/07 02:23:07;;;;;;;4.73;4.33;;;;;;;11.10;nan;99351.88;6135384;23;20225;-84
2023/05/07 02:25:34;;;;;;;4.87;4.37;;;;;;;11.07;nan;99352.31;6135141;23;20225;-83
2023/05/07 02:28:00;;;;;;;4.70;4.30;;;;;;;11.04;nan;99358.16;6135361;23;20251;-84
2023/05/07 02:31:03;;;;;;;5.00;4.60;;;;;;;10.98;nan;99356.38;6161260;23;20184;-82
2023/05/07 02:33:31;;;;;;;4.63;4.27;;;;;;;10.98;nan;99361.72;6136025;23;20192;-83
2023/05/07 02:36:08;;;;;;;4.63;4.33;;;;;;;10.89;nan;99360.41;6159611;23;20621;-82
2023/05/07 02:38:41;;;;;;;4.87;4.57;;;;;;;10.92;nan;99354.59;6137611;23;20224;-82
2023/05/07 02:41:09;;;;;;;4.50;4.20;;;;;;;10.88;nan;99367.63;6160189;23;20167;-83
2023/05/07 02:43:36;;;;;;;5.43;5.03;;;;;;;10.87;nan;99365.22;6184327;23;20167;-84
2023/05/07 02:46:08;;;;;;;4.70;4.30;;;;;;;10.87;nan;99365.22;6135423;23;20177;-83
2023/05/07 02:48:38;;;;;;;4.70;4.40;;;;;;;10.83;nan;99369.38;6160515;23;20171;-84
2023/05/07 02:51:05;;;;;;;4.70;4.27;;;;;;;10.66;nan;99363.84;6184117;23;20190;-82
2023/05/07 02:53:34;;;;;;;4.50;4.10;;;;;;;10.69;nan;99357.19;6160069;23;20174;-83
2023/05/07 02:56:02;;;;;;;4.80;4.40;;;;;;;10.60;nan;99360.19;6159946;23;20158;-84
2023/05/07 02:58:28;;;;;;;4.67;4.30;;;;;;;10.62;nan;99370.69;6159898;23;20218;-82
2023/05/07 03:00:57;;;;;;;4.57;4.17;;;;;;;10.56;nan;99361.69;6159845;23;20240;-83
2023/05/07 03:03:35;;;;;;;4.97;4.50;;;;;;;10.55;nan;99364.59;6139784;23;20166;-84
2023/05/07 03:06:02;;;;;;;4.50;4.10;;;;;;;10.53;nan;99362.16;6135034;23;20167;-84
2023/05/07 03:08:29;;;;;;;5.03;4.63;;;;;;;10.52;nan;99367.72;6159703;23;20531;-83
2023/05/07 03:10:55;;;;;;;4.67;4.37;;;;;;;10.54;nan;99371.78;6184027;23;20210;-82
2023/05/07 03:13:22;;;;;;;4.90;4.60;;;;;;;10.59;nan;99373.81;6134677;23;20176;-80
2023/05/07 03:15:49;;;;;;;5.07;4.67;;;;;;;10.55;nan;99373.44;6159029;23;20212;-82
2023/05/07 03:18:16;;;;;;;4.53;4.13;;;;;;;10.58;nan;99380.22;6135038;23;20167;-82
2023/05/07 03:20:43;;;;;;;4.63;4.23;;;;;;;10.55;nan;99381.47;6159364;23;20190;-84
2023/05/07 03:23:09;;;;;;;4.80;4.50;;;;;;;10.62;nan;99384.09;6159199;23;20236;-84
2023/05/07 03:25:37;;;;;;;5.10;4.70;;;;;;;10.61;nan;99379.75;6164358;23;20205;-82
2023/05/07 03:28:03;;;;;;;4.50;4.20;;;;;;;10.64;nan;99392.69;6188937;23;20167;-83
2023/05/07 03:30:38;;;;;;;4.20;3.90;;;;;;;10.68;nan;99385.06;6189022;23;20222;-83
2023/05/07 03:33:05;;;;;;;4.13;3.80;;;;;;;10.68;nan;99387.72;6164341;23;20261;-82
2023/05/07 03:35:32;;;;;;;4.17;3.87;;;;;;;10.69;nan;99392.84;6139890;23;20244;-83
2023/05/07 03:38:00;;;;;;;4.63;4.23;;;;;;;10.73;nan;99394.03;6139843;23;20249;-83
2023/05/07 03:40:29;;;;;;;4.40;4.10;;;;;;;10.79;nan;99394.97;6140491;23;20177;-84
2023/05/07 03:42:56;;;;;;;4.60;4.20;;;;;;;10.83;nan;99401.53;6163926;23;20197;-83
2023/05/07 03:45:25;;;;;;;4.40;4.10;;;;;;;10.80;nan;99407.34;6189882;23;20158;-83
2023/05/07 03:48:04;;;;;;;4.40;4.00;;;;;;;10.76;nan;99401.63;6166604;23;20620;-83
2023/05/07 03:50:31;;;;;;;4.37;4.07;;;;;;;10.86;nan;99409.94;6139601;23;20193;-83
2023/05/07 03:52:58;;;;;;;4.97;4.40;;;;;;;10.97;nan;99406.47;6163636;23;20190;-84
2023/05/07 03:55:26;;;;;;;4.63;4.33;;;;;;;11.01;nan;99413.00;6139446;23;20178;-84
2023/05/07 03:57:57;;;;;;;4.60;4.20;;;;;;;11.14;nan;99408.53;6164902;23;20209;-83
2023/05/07 04:00:26;;;;;;;4.50;4.10;;;;;;;11.30;nan;99403.31;6164583;23;20261;-84
2023/05/07 04:02:57;;;;;;;4.17;3.87;;;;;;;11.45;nan;99411.75;6188569;23;20159;-83
2023/05/07 04:05:26;;;;;;;4.23;3.93;;;;;;;11.57;nan;99416.34;6164698;23;20162;-83
2023/05/07 04:08:00;;;;;;;4.10;3.80;;;;;;;11.55;nan;99421.09;6188641;23;20162;-82
2023/05/07 04:10:35;;;;;;;4.03;3.73;;;;;;;11.63;nan;99426.13;6165580;23;20166;-83
2023/05/07 04:13:06;;;;;;;4.53;4.13;;;;;;;11.86;nan;99426.19;6141078;23;20200;-83
2023/05/07 04:15:35;;;;;;;4.83;4.47;;;;;;;12.02;nan;99424.69;6139923;23;20219;-84
2023/05/07 04:18:04;;;;;;;4.73;4.23;;;;;;;12.19;nan;99423.72;6140171;23;20171;-84
2023/05/07 04:20:34;;;;;;;4.20;3.90;;;;;;;12.39;nan;99435.97;6164147;23;20185;-84
2023/05/07 04:23:02;;;;;;;4.53;4.13;;;;;;;12.59;nan;99444.47;6139952;23;20166;-82
2023/05/07 04:25:30;;;;;;;4.73;4.33;;;;;;;12.83;nan;99439.88;6164000;23;20230;-83
2023/05/07 04:28:05;;;;;;;4.87;4.47;;;;;;;12.95;nan;99446.84;6142840;23;20217;-83
2023/05/07 04:30:32;;;;;;;4.53;4.17;;;;;;;13.06;nan;99442.47;6139730;23;20162;-84
2023/05/07 04:33:02;;;;;;;4.30;3.90;;;;;;;13.20;nan;99452.72;6140279;23;20192;-82
2023/05/07 04:35:31;;;;;;;4.00;3.70;;;;;;;13.32;nan;99460.75;6164197;23;20175;-83
2023/05/07 04:37:58;;;;;;;4.00;3.67;;;;;;;13.55;nan;99465.19;6163531;23;20179;-83
2023/05/07 04:40:25;;;;;;;3.33;3.13;;;;;;;13.56;nan;99462.25;6163643;23;20175;-82
2023/05/07 04:42:53;;;;;;;3.70;3.50;;;;;;;13.73;nan;99469.53;6163561;23;20172;-82
2023/05/07 04:45:21;;;;;;;3.77;3.47;;;;;;;13.93;nan;99470.69;6139506;23;20171;-84
2023/05/07 04:47:50;;;;;;;3.40;3.20;;;;;;;14.08;nan;99465.53;6164094;23;20190;-82
2023/05/07 04:50:19;;;;;;;3.90;3.60;;;;;;;14.17;nan;99473.19;6139407;23;20180;-83
2023/05/07 04:52:47;;;;;;;3.30;3.03;;;;;;;14.21;nan;99477.84;6139708;23;20239;-83
2023/05/07 04:55:14;;;;;;;3.27;3.07;;;;;;;14.31;nan;99480.69;6163114;23;20171;-82
2023/05/07 04:57:41;;;;;;;3.17;2.97;;;;;;;14.47;nan;99481.75;6139259;23;20670;-83
2023/05/07 05:00:14;;;;;;;3.47;3.17;;;;;;;14.60;nan;99489.50;6163858;23;20192;-83
2023/05/07 05:02:43;;;;;;;3.40;3.20;;;;;;;14.68;nan;99496.34;6140671;23;20160;-82
2023/05/07 05:05:13;;;;;;;3.50;3.20;;;;;;;14.86;nan;99493.34;6188265;23;20297;-82
2023/05/07 05:07:40;;;;;;;3.60;3.30;;;;;;;14.96;nan;99491.59;6163791;23;20172;-82
2023/05/07 05:10:07;;;;;;;3.53;3.23;;;;;;;15.07;nan;99497.91;6165020;23;20708;-82
2023/05/07 05:12:37;;;;;;;3.50;3.10;;;;;;;15.10;nan;99510.91;6165698;23;20547;-82
2023/05/07 05:15:05;;;;;;;4.17;3.87;;;;;;;15.22;nan;99505.34;6165103;23;20162;-82
2023/05/07 05:17:34;;;;;;;3.73;3.43;;;;;;;15.33;nan;99509.81;6164924;23;20180;-82
2023/05/07 05:20:03;;;;;;;3.80;3.50;;;;;;;15.48;nan;99517.28;6165552;23;20208;-82
2023/05/07 05:22:31;;;;;;;3.97;3.67;;;;;;;15.61;nan;99517.72;6140586;23;20162;-82
2023/05/07 05:24:59;;;;;;;4.00;3.70;;;;;;;15.75;nan;99513.53;6165104;23;20722;-82
2023/05/07 05:27:26;;;;;;;4.50;4.10;;;;;;;15.93;nan;99516.91;6140947;23;20190;-82
2023/05/07 05:29:53;;;;;;;4.77;4.30;;;;;;;16.13;nan;99512.50;6140922;23;20174;-82
2023/05/07 05:32:20;;;;;;;4.30;4.00;;;;;;;16.32;nan;99514.81;6164761;23;20196;-82
2023/05/07 05:34:48;;;;;;;4.47;4.07;;;;;;;16.52;nan;99523.84;6164797;23;20224;-82
2023/05/07 05:37:15;;;;;;;4.93;4.30;;;;;;;16.67;nan;99528.56;6165206;23;20180;-82
2023/05/07 05:39:42;;;;;;;5.13;4.63;;;;;;;16.72;nan;99524.00;6140089;23;20170;-82
2023/05/07 05:42:09;;;;;;;5.13;4.67;;;;;;;16.82;nan;99517.84;6164954;23;20197;-82
2023/05/07 05:44:36;;;;;;;4.83;4.43;;;;;;;17.09;nan;99520.41;6164730;23;20170;-81
2023/05/07 05:47:03;;;;;;;5.10;4.70;;;;;;;17.29;nan;99525.91;6164478;23;20208;-81
2023/05/07 05:49:30;;;;;;;5.33;4.83;;;;;;;17.33;nan;99526.19;6140059;23;20620;-82
2023/05/07 05:51:57;;;;;;;7.23;6.53;;;;;;;17.22;nan;99528.03;6140132;23;20190;-81
2023/05/07 05:54:25;;;;;;;7.13;6.43;;;;;;;17.22;nan;99532.66;6164860;23;20174;-82
2023/05/07 05:56:55;;;;;;;7.00;6.30;;;;;;;17.05;nan;99525.53;6141376;23;20188;-82
2023/05/07 05:59:22;;;;;;;7.77;6.97;;;;;;;16.84;nan;99528.41;6140794;23;20277;-81
2023/05/07 06:01:51;;;;;;;8.60;7.10;;;;;;;16.82;nan;99527.84;6140876;23;20174;-81
2023/05/07 06:04:19;;;;;;;7.87;7.20;;;;;;;16.64;nan;99523.69;6164557;23;20170;-81
2023/05/07 06:06:45;;;;;;;7.60;7.00;;;;;;;16.35;nan;99525.91;6139770;23;20177;-82
2023/05/07 06:09:13;;;;;;;7.60;7.00;;;;;;;16.40;nan;99525.13;6139373;23;20176;-82
2023/05/07 06:11:42;;;;;;;10.07;8.80;;;;;;;16.62;nan;99528.53;6188165;23;20190;-82
2023/05/07 06:14:13;;;;;;;11.33;10.40;;;;;;;16.58;nan;99528.25;6139949;23;20216;-82
2023/05/07 06:16:39;;;;;;;11.43;10.43;;;;;;;16.61;nan;99537.75;6164229;23;20192;-81
2023/05/07 06:19:07;;;;;;;12.73;11.63;;;;;;;16.62;nan;99534.78;6139382;23;20173;-81
2023/05/07 06:21:34;;;;;;;12.43;11.33;;;;;;;16.72;nan;99532.13;6139597;23;20184;-81
2023/05/07 06:24:01;;;;;;;14.83;13.53;;;;;;;16.82;nan;99541.38;6139450;23;20584;-83
2023/05/07 06:26:27;;;;;;;14.60;13.30;;;;;;;16.75;nan;99541.59;6164083;23;20170;-82
2023/05/07 06:28:57;;;;;;;14.17;12.87;;;;;;;16.82;nan;99536.78;6214912;23;20613;-82
2023/05/07 06:31:29;;;;;;;13.63;12.37;;;;;;;17.33;nan;99547.84;6139532;23;20248;-82
2023/05/07 06:34:03;;;;;;;14.53;13.13;;;;;;;17.59;nan;99552.28;6141839;23;20169;-81
2023/05/07 06:36:34;;;;;;;14.40;13.17;;;;;;;17.33;nan;99551.38;6164947;23;20624;-82
2023/05/07 06:39:07;;;;;;;14.53;13.03;;;;;;;17.35;nan;99551.94;6165555;23;20501;-82
2023/05/07 06:41:35;;;;;;;14.77;13.37;;;;;;;17.46;nan;99550.84;6139414;23;20293;-82
2023/05/07 06:44:07;;;;;;;16.23;14.73;;;;;;;17.33;nan;99547.84;6141573;23;20671;-82
2023/05/07 06:46:45;;;;;;;15.90;14.40;;;;;;;17.37;nan;99551.63;6166509;23;20169;-81
2023/05/07 06:49:13;;;;;;;15.83;14.43;;;;;;;17.36;nan;99555.41;6164088;23;20651;-82
2023/05/07 06:51:40;;;;;;;15.57;14.03;;;;;;;17.05;nan;99549.06;6163997;23;20193;-82
2023/05/07 06:54:07;;;;;;;15.67;14.27;;;;;;;17.09;nan;99558.28;6163646;23;20166;-82
2023/05/07 06:56:36;;;;;;;16.53;14.93;;;;;;;17.19;nan;99547.50;6164462;23;20250;-82
2023/05/07 06:59:04;;;;;;;17.07;15.07;;;;;;;16.91;nan;99551.44;6213131;23;20706;-81
2023/05/07 07:01:35;;;;;;;15.90;14.40;;;;;;;17.40;nan;99549.25;6164430;23;20309;-82
2023/05/07 07:04:03;;;;;;;17.30;15.77;;;;;;;17.89;nan;99552.34;6139363;23;20200;-81
2023/05/07 07:06:31;;;;;;;18.20;16.57;;;;;;;17.94;nan;99556.97;6139015;23;20188;-82
2023/05/07 07:09:00;;;;;;;17.50;16.00;;;;;;;18.06;nan;99543.94;6163723;23;20225;-82
2023/05/07 07:11:28;;;;;;;17.30;15.70;;;;;;;18.51;nan;99550.47;6139503;23;20741;-82
2023/05/07 07:13:56;;;;;;;17.87;16.10;;;;;;;19.03;nan;99550.94;6163101;23;20275;-81
2023/05/07 07:16:23;;;;;;;18.73;17.03;;;;;;;19.09;nan;99551.69;6163402;23;20166;-82
2023/05/07 07:18:50;;;;;;;18.90;17.10;;;;;;;19.41;nan;99559.47;6163422;23;20173;-82
2023/05/07 07:21:19;;;;;;;19.17;17.30;;;;;;;19.21;nan;99553.03;6139669;23;20173;-81
2023/05/07 07:23:46;;;;;;;18.67;17.00;;;;;;;19.15;nan;99559.56;6160234;23;20213;-81
2023/05/07 07:26:14;;;;;;;18.23;16.43;;;;;;;19.22;nan;99554.63;6133477;23;20177;-81
2023/05/07 07:28:50;;;;;;;19.40;17.67;;;;;;;18.82;nan;99560.19;6133035;23;20170;-81
2023/05/07 07:31:20;;;;;;;19.83;18.03;;;;;;;19.09;nan;99559.84;6133580;23;20162;-81
2023/05/07 07:33:50;;;;;;;18.77;16.97;;;;;;;19.42;nan;99567.31;6133952;23;20281;-81
2023/05/07 07:36:18;;;;;;;19.43;17.67;;;;;;;19.50;nan;99564.06;6157582;23;20163;-81
2023/05/07 07:38:45;;;;;;;19.17;17.33;;;;;;;20.01;nan;99561.88;6134026;23;20167;-81
2023/05/07 07:41:13;;;;;;;19.73;17.93;;;;;;;19.47;nan;99572.75;6133364;23;20171;-81
2023/05/07 07:43:40;;;;;;;18.83;17.20;;;;;;;19.88;nan;99581.50;6133667;23;20170;-81
2023/05/07 07:46:07;;;;;;;18.70;16.90;;;;;;;20.22;nan;99584.25;6133290;23;20687;-80
2023/05/07 07:48:37;;;;;;;19.13;17.43;;;;;;;19.76;nan;99583.75;6157584;23;20171;-81
2023/05/07 07:51:04;;;;;;;17.87;16.27;;;;;;;20.45;nan;99586.28;6109908;23;20170;-81
2023/05/07 07:53:31;;;;;;;18.47;16.77;;;;;;;19.27;nan;99579.06;6109282;23;20199;-81
2023/05/07 07:55:59;;;;;;;19.20;17.40;;;;;;;19.98;nan;99586.06;6133336;23;20170;-82
2023/05/07 07:58:29;;;;;;;19.40;17.50;;;;;;;20.33;nan;99576.88;6110720;23;20195;-82
2023/05/07 08:00:58;;;;;;;17.40;15.90;;;;;;;20.21;nan;99586.16;6133670;23;20176;-81
2023/05/07 08:03:25;;;;;;;18.13;16.53;;;;;;;19.55;nan;99582.25;6133894;23;20198;-81
2023/05/07 08:05:56;;;;;;;19.53;17.73;;;;;;;19.43;nan;99577.09;6110911;23;20174;-81
2023/05/07 08:08:24;;;;;;;19.60;17.73;;;;;;;19.66;nan;99575.66;6133473;23;20179;-82
2023/05/07 08:10:52;;;;;;;18.13;16.43;;;;;;;19.06;nan;99584.84;6157515;23;20178;-81
2023/05/07 08:13:26;;;;;;;17.40;15.87;;;;;;;19.70;nan;99587.59;6157509;23;20194;-82
2023/05/07 08:15:53;;;;;;;17.53;15.93;;;;;;;20.51;nan;99578.91;6133091;23;20175;-82
2023/05/07 08:18:21;;;;;;;18.00;16.40;;;;;;;20.26;nan;99592.66;6109038;23;20225;-82
2023/05/07 08:20:47;;;;;;;17.77;16.27;;;;;;;20.75;nan;99589.84;6158010;23;20185;-81
2023/05/07 08:23:19;;;;;;;14.83;13.63;;;;;;;21.05;nan;99593.03;6134181;23;20314;-82
2023/05/07 08:25:47;;;;;;;15.83;14.37;;;;;;;20.21;nan;99594.34;6131299;23;20209;-81
2023/05/07 08:28:15;;;;;;;15.27;13.97;;;;;;;19.68;nan;99600.66;6156956;23;20262;-81
2023/05/07 08:30:41;;;;;;;16.07;14.67;;;;;;;19.62;nan;99596.34;6109075;23;20181;-81
2023/05/07 08:33:08;;;;;;;16.80;15.30;;;;;;;19.86;nan;99597.31;6133026;23;20209;-83
2023/05/07 08:35:35;;;;;;;17.10;15.60;;;;;;;20.30;nan;99593.72;6108935;23;20175;-82
2023/05/07 08:38:04;;;;;;;17.67;16.13;;;;;;;20.53;nan;99601.22;6109591;23;20182;-81
2023/05/07 08:40:36;;;;;;;17.10;15.53;;;;;;;20.59;nan;99597.31;6157125;23;20186;-82
2023/05/07 08:43:06;;;;;;;15.57;14.17;;;;;;;21.30;nan;99594.72;6134004;23;20161;-82
2023/05/07 08:45:37;;;;;;;17.20;15.60;;;;;;;21.34;nan;99586.75;6109442;23;20328;-82
2023/05/07 08:48:09;;;;;;;17.07;15.57;;;;;;;20.17;nan;99595.19;6108736;23;20178;-81
2023/05/07 08:50:38;;;;;;;16.03;14.63;;;;;;;20.62;nan;99591.31;6109185;23;20176;-81
2023/05/07 08:53:05;;;;;;;16.47;14.77;;;;;;;20.38;nan;99596.69;6108650;23;20216;-81
2023/05/07 08:55:33;;;;;;;16.57;15.07;;;;;;;21.01;nan;99594.72;6108598;23;20168;-82
2023/05/07 08:58:01;;;;;;;16.50;15.03;;;;;;;20.22;nan;99579.63;6109058;23;20192;-83
2023/05/07 09:00:29;;;;;;;17.03;15.53;;;;;;;21.06;nan;99588.41;6133060;23;20181;-82
2023/05/07 09:02:57;;;;;;;15.87;14.47;;;;;;;21.88;nan;99580.88;6133213;23;20170;-81
2023/05/07 09:05:24;;;;;;;15.77;14.27;;;;;;;22.33;nan;99582.94;6107947;23;20165;-81
2023/05/07 09:07:51;;;;;;;14.33;13.13;;;;;;;22.62;nan;99592.81;6132894;23;20173;-81
2023/05/07 09:10:21;;;;;;;14.77;13.57;;;;;;;21.93;nan;99591.72;6157643;23;20646;-82
2023/05/07 09:12:48;;;;;;;14.40;13.13;;;;;;;21.72;nan;99595.81;6133071;23;20194;-81
2023/05/07 09:15:18;;;;;;;14.27;13.07;;;;;;;21.84;nan;99590.72;6133302;23;20257;-82
2023/05/07 09:17:44;;;;;;;13.63;12.47;;;;;;;21.59;nan;99586.44;6132585;23;20175;-81
2023/05/07 09:20:11;;;;;;;14.63;13.37;;;;;;;20.57;nan;99585.94;6132547;23;20168;-82
2023/05/07 09:22:39;;;;;;;15.80;14.23;;;;;;;19.75;nan;99585.66;6132954;23;20173;-82
2023/05/07 09:25:10;;;;;;;14.70;13.40;;;;;;;19.63;nan;99584.38;6133020;23;20247;-82
2023/05/07 09:27:38;;;;;;;14.63;13.33;;;;;;;19.95;nan;99592.91;6132762;23;20174;-81
2023/05/07 09:30:08;;;;;;;15.50;14.10;;;;;;;19.53;nan;99584.44;6132955;23;20199;-82
2023/05/07 09:32:39;;;;;;;13.73;12.53;;;;;;;20.06;nan;99586.28;6131968;23;20192;-81
2023/05/07 09:35:21;;;;;;;14.17;12.90;;;;;;;19.55;nan;99590.41;6156343;23;20250;-81
2023/05/07 09:37:59;;;;;;;14.37;13.07;;;;;;;19.46;nan;99582.00;6133722;23;20820;-81
2023/05/07 09:40:30;;;;;;;13.30;12.10;;;;;;;19.64;nan;99594.94;6109977;23;20172;-81
2023/05/07 09:43:11;;;;;;;15.67;14.27;;;;;;;19.52;nan;99580.91;6132370;23;20159;-81
2023/05/07 09:45:43;;;;;;;15.27;13.87;;;;;;;20.10;nan;99587.34;6132760;23;20171;-82
2023/05/07 09:48:13;;;;;;;15.30;14.00;;;;;;;20.18;nan;99584.03;6132538;23;20171;-81
2023/05/07 09:50:51;;;;;;;16.30;14.80;;;;;;;19.44;nan;99583.38;6132713;23;20168;-83
2023/05/07 09:53:22;;;;;;;16.90;15.40;;;;;;;19.65;nan;99579.47;6133734;23;20710;-82
2023/05/07 09:55:51;;;;;;;14.67;13.30;;;;;;;20.19;nan;99585.66;6110527;23;20187;-81
2023/05/07 09:58:18;;;;;;;15.47;14.07;;;;;;;19.83;nan;99583.47;6110082;23;20192;-81
2023/05/07 10:00:46;;;;;;;15.73;14.30;;;;;;;19.38;nan;99577.13;6134686;23;20863;-81
2023/05/07 10:03:15;;;;;;;16.00;14.60;;;;;;;20.06;nan;99575.41;6158902;23;20168;-82
2023/05/07 10:05:52;;;;;;;15.20;13.87;;;;;;;20.41;nan;99578.97;6136819;23;20166;-82
2023/05/07 10:08:20;;;;;;;14.80;13.50;;;;;;;20.72;nan;99579.53;6110457;23;20167;-81
2023/05/07 10:10:50;;;;;;;16.47;15.00;;;;;;;20.34;nan;99575.78;6108952;23;20223;-80
2023/05/07 10:13:21;;;;;;;15.10;13.73;;;;;;;20.02;nan;99570.81;6158003;23;20196;-82
2023/05/07 10:15:52;;;;;;;14.97;13.67;;;;;;;20.32;nan;99554.28;6134554;23;20169;-81
2023/05/07 10:18:23;;;;;;;14.20;12.93;;;;;;;20.53;nan;99569.34;6133947;23;20184;-81
2023/05/07 10:20:52;;;;;;;14.83;13.53;;;;;;;20.83;nan;99561.97;6134642;23;20164;-81
2023/05/07 10:23:23;;;;;;;13.87;12.67;;;;;;;20.74;nan;99556.34;6133811;23;20196;-81
2023/05/07 10:25:55;;;;;;;14.77;13.47;;;;;;;21.04;nan;99569.63;6158339;23;20231;-81
2023/05/07 10:28:27;;;;;;;14.70;13.30;;;;;;;21.43;nan;99571.38;6183028;23;20720;-81
2023/05/07 10:31:01;;;;;;;13.30;12.20;;;;;;;21.66;nan;99565.06;6158461;23;20181;-81
2023/05/07 10:33:36;;;;;;;14.43;13.03;;;;;;;21.16;nan;99563.81;6159245;23;20189;-81
2023/05/07 10:36:05;;;;;;;13.53;12.33;;;;;;;21.87;nan;99571.88;6182847;23;20247;-81
2023/05/07 10:38:32;;;;;;;14.63;13.30;;;;;;;21.92;nan;99571.00;6132506;23;20191;-82
2023/05/07 10:41:00;;;;;;;13.20;12.00;;;;;;;22.12;nan;99573.44;6158661;23;20787;-81
2023/05/07 10:43:42;;;;;;;12.90;11.80;;;;;;;21.40;nan;99574.69;6159000;23;20175;-80
2023/05/07 10:46:20;;;;;;;13.17;11.97;;;;;;;21.56;nan;99564.44;6159438;23;20173;-81
2023/05/07 10:49:08;;;;;;;11.90;10.90;;;;;;;21.79;nan;99564.34;6162497;23;20641;-81
2023/05/07 10:52:27;;;;;;;11.97;10.97;;;;;;;21.15;nan;99564.91;6162067;23;20165;-80
2023/05/07 10:55:26;;;;;;;12.37;11.27;;;;;;;20.60;nan;99566.28;6082729;23;20235;-81
2023/05/07 10:58:21;;;;;;;11.13;10.07;;;;;;;21.47;nan;99565.06;6183041;23;20670;-81
2023/05/07 11:01:05;;;;;;;11.53;10.57;;;;;;;21.37;nan;99564.41;6161915;23;20609;-81
2023/05/07 11:04:14;;;;;;;12.43;11.33;;;;;;;21.57;nan;99560.56;6136340;23;20208;-81
2023/05/07 11:07:25;;;;;;;11.00;10.10;;;;;;;20.85;nan;99560.59;6159343;23;20165;-81
2023/05/07 11:10:01;;;;;;;11.80;10.73;;;;;;;21.02;nan;99565.59;6118430;23;20174;-81
2023/05/07 11:12:50;;;;;;;11.87;10.70;;;;;;;21.93;nan;99567.97;6162836;23;20172;-81
2023/05/07 11:15:34;;;;;;;10.73;9.83;;;;;;;22.08;nan;99561.50;6159106;23;20155;-81
2023/05/07 11:18:06;;;;;;;11.43;10.33;;;;;;;21.65;nan;99565.38;6158074;23;20179;-81
2023/05/07 11:20:50;;;;;;;12.03;10.93;;;;;;;22.61;nan;99564.72;6159174;23;20166;-81
2023/05/07 11:23:32;;;;;;;11.33;10.27;;;;;;;22.42;nan;99560.41;6182281;23;20519;-81
2023/05/07 11:26:11;;;;;;;12.23;11.13;;;;;;;21.83;nan;99559.94;6157379;23;20163;-82
2023/05/07 11:28:40;;;;;;;10.33;9.43;;;;;;;23.08;nan;99560.84;6133579;23;20171;-81
2023/05/07 11:31:08;;;;;;;11.73;10.70;;;;;;;23.61;nan;99552.91;6108969;23;20270;-81
2023/05/07 11:33:36;;;;;;;11.93;10.77;;;;;;;23.71;nan;99549.16;6109389;23;20283;-82
2023/05/07 11:36:05;;;;;;;12.10;11.10;;;;;;;22.67;nan;99562.69;6133537;23;20177;-81
2023/05/07 11:38:37;;;;;;;12.32;11.23;;;;;;;22.85;nan;99561.84;6135295;23;20170;-81
2023/05/07 11:41:05;;;;;;;11.43;10.43;;;;;;;22.58;nan;99557.13;6108913;23;20178;-81
2023/05/07 11:43:32;;;;;;;11.13;10.13;;;;;;;22.97;nan;99561.34;6108780;23;20213;-81
2023/05/07 11:46:09;;;;;;;11.10;10.15;;;;;;;23.31;nan;99563.69;6108969;23;20257;-80
2023/05/07 11:48:36;;;;;;;11.80;10.80;;;;;;;22.12;nan;99569.88;6157703;23;20644;-81
2023/05/07 11:51:05;;;;;;;10.10;9.30;;;;;;;23.60;nan;99559.53;6158070;23;20170;-80
2023/05/07 11:53:39;;;;;;;11.13;10.07;;;;;;;23.11;nan;99560.25;6157799;23;20257;-80
2023/05/07 11:56:14;;;;;;;11.15;10.15;;;;;;;22.97;nan;99564.88;6133269;23;20169;-80